Time;durP1;ratioP1;P1;durP2;ratioP2;P2;SDS_P1;SDS_P2;PMS_P1;PMS_P2;Temp;Humidity;BMP_temperature;BMP_pressure;BME280_temperature;BME280_humidity;BME280_pressure;Samples;Min_cycle;Max_cycle;Signal;HPM_P1;HPM_P2
2022/06/20 00:00:56;;;;;;;4.53;2.78;;;17.60;99.90;;;;;;7379567;19;20364;-75
2022/06/20 00:03:26;;;;;;;5.28;3.00;;;17.60;99.90;;;;;;7383453;19;20359;-75
2022/06/20 00:05:52;;;;;;;4.00;3.10;;;17.50;99.90;;;;;;7381591;19;20387;-76
2022/06/20 00:08:18;;;;;;;3.05;2.63;;;17.50;99.90;;;;;;7381448;19;20400;-75
2022/06/20 00:10:44;;;;;;;5.63;3.30;;;17.40;99.90;;;;;;7383198;19;20341;-76
2022/06/20 00:13:23;;;;;;;4.07;3.13;;;17.20;99.90;;;;;;7383627;19;20315;-75
2022/06/20 00:15:50;;;;;;;4.50;3.28;;;17.20;99.90;;;;;;7278030;19;2019919;-76
2022/06/20 00:18:16;;;;;;;5.90;3.78;;;17.30;99.90;;;;;;7383069;19;20321;-75
2022/06/20 00:20:41;;;;;;;4.83;3.27;;;17.30;99.90;;;;;;7379297;19;20297;-76
2022/06/20 00:23:07;;;;;;;4.10;3.33;;;17.20;99.90;;;;;;7382371;19;20428;-75
2022/06/20 00:25:33;;;;;;;4.22;2.85;;;17.20;99.90;;;;;;7379632;19;20337;-76
2022/06/20 00:27:58;;;;;;;4.77;3.30;;;17.20;99.90;;;;;;7377433;19;20309;-76
2022/06/20 00:30:24;;;;;;;5.13;3.42;;;17.20;99.90;;;;;;7378036;19;20316;-77
2022/06/20 00:32:50;;;;;;;5.53;4.10;;;17.30;99.90;;;;;;7381614;19;20328;-76
2022/06/20 00:35:15;;;;;;;5.10;3.70;;;17.20;99.90;;;;;;7380978;19;20308;-76
2022/06/20 00:37:41;;;;;;;5.43;3.40;;;17.20;99.90;;;;;;7381290;19;20696;-76
2022/06/20 00:40:23;;;;;;;3.63;3.33;;;17.30;99.90;;;;;;7381961;19;20879;-76
2022/06/20 00:42:49;;;;;;;4.03;3.63;;;17.40;99.90;;;;;;7383053;19;20595;-76
2022/06/20 00:45:15;;;;;;;4.72;3.60;;;17.40;99.90;;;;;;7382412;19;20315;-76
2022/06/20 00:47:41;;;;;;;3.65;3.35;;;17.50;99.90;;;;;;7383130;19;20425;-76
2022/06/20 00:50:12;;;;;;;4.30;3.20;;;17.50;99.90;;;;;;7382502;19;20341;-76
2022/06/20 00:52:57;;;;;;;4.32;3.60;;;17.50;99.90;;;;;;7384047;19;20982;-76
2022/06/20 00:55:26;;;;;;;4.18;3.70;;;17.50;99.90;;;;;;7277741;19;2017044;-77
2022/06/20 00:58:26;;;;;;;4.97;3.80;;;17.50;99.90;;;;;;7381577;19;20312;-76
2022/06/20 01:00:51;;;;;;;5.82;4.10;;;17.50;99.90;;;;;;7279889;19;2006320;-76
2022/06/20 01:03:20;;;;;;;6.40;4.40;;;17.30;99.90;;;;;;7379850;19;20704;-76
2022/06/20 01:05:58;;;;;;;4.83;4.20;;;17.00;99.90;;;;;;7380642;19;20731;-75
2022/06/20 01:08:29;;;;;;;7.20;4.55;;;17.00;99.90;;;;;;7271994;19;2020165;-76
2022/06/20 01:10:58;;;;;;;5.40;3.67;;;16.80;99.90;;;;;;7377839;19;20362;-75
2022/06/20 01:13:24;;;;;;;6.15;4.07;;;16.90;99.90;;;;;;7380006;19;20329;-75
2022/06/20 01:15:50;;;;;;;4.55;3.78;;;16.90;99.90;;;;;;7379066;19;20343;-75
2022/06/20 01:18:22;;;;;;;5.35;4.45;;;17.10;99.90;;;;;;7376515;19;20329;-76
2022/06/20 01:20:48;;;;;;;4.63;4.10;;;17.10;99.90;;;;;;7377345;19;20325;-76
2022/06/20 01:23:43;;;;;;;4.57;4.13;;;17.00;99.90;;;;;;7381502;19;20316;-76
2022/06/20 01:26:16;;;;;;;5.40;4.70;;;17.10;99.90;;;;;;7278418;19;2004367;-75
2022/06/20 01:28:43;;;;;;;5.10;4.40;;;17.10;99.90;;;;;;7377820;19;20359;-75
2022/06/20 01:31:09;;;;;;;5.18;4.68;;;17.20;99.90;;;;;;7380231;19;20335;-75
2022/06/20 01:33:35;;;;;;;7.15;4.60;;;17.20;99.90;;;;;;7381209;19;21195;-75
2022/06/20 01:38:45;;;;;;;4.93;4.37;;;17.10;99.90;;;;;;7380942;19;20300;-76
2022/06/20 01:43:56;;;;;;;6.70;4.95;;;16.90;99.90;;;;;;7276252;19;2004351;-75
2022/06/20 01:46:21;;;;;;;5.73;4.87;;;16.80;99.90;;;;;;7376025;19;20312;-76
2022/06/20 01:48:49;;;;;;;7.38;4.60;;;16.50;99.90;;;;;;7381608;19;20404;-75
2022/06/20 01:51:45;;;;;;;8.40;5.30;;;16.60;99.90;;;;;;7376233;19;20676;-75
2022/06/20 01:54:11;;;;;;;7.70;5.00;;;16.40;99.90;;;;;;7274437;19;2004592;-74
2022/06/20 01:56:36;;;;;;;6.10;5.00;;;16.50;99.90;;;;;;7373844;19;20335;-75
2022/06/20 01:59:05;;;;;;;7.37;5.53;;;16.60;99.90;;;;;;7374842;19;20337;-74
2022/06/20 02:01:33;;;;;;;10.15;5.65;;;16.40;99.90;;;;;;7373642;19;20301;-74
2022/06/20 02:03:58;;;;;;;7.30;5.40;;;16.30;99.90;;;;;;7376587;19;20391;-74
2022/06/20 02:06:24;;;;;;;7.73;6.00;;;16.40;99.90;;;;;;7374580;19;20733;-75
2022/06/20 02:08:51;;;;;;;6.00;5.25;;;16.00;99.90;;;;;;7375141;19;20378;-74
2022/06/20 02:11:25;;;;;;;6.43;5.73;;;16.10;99.90;;;;;;7379527;19;20842;-74
2022/06/20 02:13:52;;;;;;;7.87;5.40;;;16.10;99.90;;;;;;7277391;19;2004408;-74
2022/06/20 02:16:18;;;;;;;7.70;6.75;;;16.10;99.90;;;;;;7376621;19;20314;-74
2022/06/20 02:18:45;;;;;;;8.57;6.80;;;15.70;99.90;;;;;;7375494;19;20345;-73
2022/06/20 02:21:20;;;;;;;9.13;6.97;;;15.80;99.90;;;;;;7376058;19;20324;-74
2022/06/20 02:23:47;;;;;;;10.50;7.50;;;15.80;99.90;;;;;;7375073;19;20335;-75
2022/06/20 02:26:13;;;;;;;10.80;6.97;;;15.60;99.90;;;;;;7375761;19;20324;-75
2022/06/20 02:28:39;;;;;;;10.48;6.55;;;15.60;99.90;;;;;;7376417;19;20344;-74
2022/06/20 02:31:06;;;;;;;8.77;5.82;;;15.70;99.90;;;;;;7378468;19;20341;-75
2022/06/20 02:33:31;;;;;;;7.57;6.25;;;15.80;99.90;;;;;;7375224;19;20333;-74
2022/06/20 02:35:57;;;;;;;6.53;5.33;;;15.80;99.90;;;;;;7375979;19;20316;-75
2022/06/20 02:38:23;;;;;;;6.50;5.82;;;15.80;99.90;;;;;;7374459;19;20875;-75
2022/06/20 02:40:49;;;;;;;7.63;6.10;;;16.00;99.90;;;;;;7375451;19;20350;-76
2022/06/20 02:43:19;;;;;;;7.45;5.50;;;16.00;99.90;;;;;;7374688;19;20349;-73
2022/06/20 02:45:45;;;;;;;6.67;5.17;;;16.00;99.90;;;;;;7374809;19;20325;-74
2022/06/20 02:48:10;;;;;;;7.40;5.70;;;16.00;99.90;;;;;;7373454;19;20317;-74
2022/06/20 02:50:57;;;;;;;7.90;5.60;;;16.00;99.90;;;;;;7374370;19;21082;-75
2022/06/20 02:53:40;;;;;;;6.32;5.65;;;16.10;99.90;;;;;;7272609;19;2004223;-75
2022/06/20 02:56:07;;;;;;;7.15;5.70;;;16.00;99.90;;;;;;7372238;19;20345;-77
2022/06/20 02:58:34;;;;;;;6.67;5.50;;;15.90;99.90;;;;;;7371508;19;20344;-76
2022/06/20 03:01:16;;;;;;;5.05;4.55;;;15.80;99.90;;;;;;7373493;19;20766;-75
2022/06/20 03:03:47;;;;;;;8.30;6.03;;;15.70;99.90;;;;;;7371464;19;20325;-76
2022/06/20 03:06:27;;;;;;;6.57;5.47;;;15.60;99.90;;;;;;7373149;19;20336;-75
2022/06/20 03:08:53;;;;;;;8.82;5.45;;;15.60;99.90;;;;;;7267920;19;2004660;-77
2022/06/20 03:11:19;;;;;;;7.43;6.07;;;15.60;99.90;;;;;;7372632;19;20312;-73
2022/06/20 03:13:46;;;;;;;6.65;5.55;;;15.60;99.90;;;;;;7374784;19;20348;-77
2022/06/20 03:16:11;;;;;;;7.35;5.55;;;15.70;99.90;;;;;;7375782;19;20320;-77
2022/06/20 03:18:40;;;;;;;8.32;5.65;;;15.70;99.90;;;;;;7373242;19;20681;-76
2022/06/20 03:21:06;;;;;;;6.57;5.32;;;15.50;99.90;;;;;;7373338;19;20332;-77
2022/06/20 03:23:32;;;;;;;6.80;5.00;;;15.50;99.90;;;;;;7373604;19;20344;-76
2022/06/20 03:25:59;;;;;;;5.82;5.05;;;15.40;99.90;;;;;;7374291;19;20645;-74
2022/06/20 03:28:24;;;;;;;7.47;5.75;;;15.50;99.90;;;;;;7370567;19;20649;-73
2022/06/20 03:30:50;;;;;;;6.57;5.15;;;15.50;99.90;;;;;;7371068;19;20340;-75
2022/06/20 03:33:16;;;;;;;5.53;4.60;;;15.40;99.90;;;;;;7371577;19;20293;-75
2022/06/20 03:35:51;;;;;;;5.75;4.82;;;15.30;99.90;;;;;;7369465;19;21830;-75
2022/06/20 03:38:17;;;;;;;5.07;4.05;;;15.20;99.90;;;;;;7369846;19;20293;-75
2022/06/20 03:40:42;;;;;;;5.50;4.03;;;15.30;99.90;;;;;;7374867;19;20336;-76
2022/06/20 03:43:09;;;;;;;4.68;4.07;;;15.20;99.90;;;;;;7374597;19;21009;-75
2022/06/20 03:45:49;;;;;;;5.50;4.25;;;15.20;99.90;;;;;;7377017;19;20644;-78
2022/06/20 03:48:22;;;;;;;5.63;4.32;;;15.20;99.90;;;;;;7375075;19;20324;-76
2022/06/20 03:50:55;;;;;;;5.35;3.85;;;15.20;99.90;;;;;;7384523;19;20331;-75
2022/06/20 03:53:30;;;;;;;4.90;3.83;;;15.40;99.90;;;;;;7382126;19;20324;-75
2022/06/20 03:55:59;;;;;;;5.80;3.78;;;15.30;99.90;;;;;;7276198;19;2004281;-75
2022/06/20 03:58:31;;;;;;;5.35;4.30;;;15.30;99.90;;;;;;7378817;19;20324;-75
2022/06/20 04:01:07;;;;;;;4.20;3.80;;;15.30;99.90;;;;;;7382606;19;20335;-77
2022/06/20 04:03:45;;;;;;;4.20;3.65;;;15.40;99.90;;;;;;7383929;19;20355;-78
2022/06/20 04:06:17;;;;;;;5.40;4.10;;;15.50;99.90;;;;;;7384540;19;20377;-77
2022/06/20 04:11:44;;;;;;;5.17;4.23;;;15.20;99.90;;;;;;7279645;19;2004681;-77
2022/06/20 04:14:18;;;;;;;4.72;3.95;;;15.30;99.90;;;;;;7382984;19;20341;-79
2022/06/20 04:16:45;;;;;;;5.15;4.30;;;15.20;99.90;;;;;;7378021;19;20392;-86
2022/06/20 04:19:23;;;;;;;4.77;3.70;;;15.10;99.90;;;;;;7379635;19;20344;-76
2022/06/20 04:21:56;;;;;;;3.53;3.22;;;15.10;99.90;;;;;;7379212;19;20312;-77
2022/06/20 04:24:29;;;;;;;3.95;3.65;;;15.20;99.90;;;;;;7380807;19;20323;-75
2022/06/20 04:27:15;;;;;;;7.22;4.00;;;15.30;99.90;;;;;;7274924;19;2004306;-78
2022/06/20 04:29:54;;;;;;;4.10;3.70;;;15.20;99.90;;;;;;7378045;19;20380;-81
2022/06/20 04:32:30;;;;;;;4.05;3.65;;;15.10;99.90;;;;;;7376949;19;20657;-77
2022/06/20 04:34:57;;;;;;;3.67;3.38;;;15.20;99.90;;;;;;7276086;19;2004291;-76
2022/06/20 04:37:38;;;;;;;6.13;3.58;;;15.20;99.90;;;;;;7377106;19;20360;-76
2022/06/20 04:40:05;;;;;;;3.78;3.45;;;15.40;99.90;;;;;;7277692;19;2019863;-80
2022/06/20 04:42:47;;;;;;;3.85;3.15;;;15.40;99.90;;;;;;7377108;19;20361;-78
2022/06/20 04:45:24;;;;;;;3.50;3.20;;;15.60;99.90;;;;;;7380719;19;20355;-81
2022/06/20 04:47:55;;;;;;;3.90;3.58;;;15.60;99.90;;;;;;7378213;19;20321;-78
2022/06/20 04:50:32;;;;;;;3.97;3.60;;;15.60;99.90;;;;;;7384334;19;20778;-76
2022/06/20 04:53:05;;;;;;;4.35;3.63;;;15.50;99.90;;;;;;7277747;19;2004324;-78
2022/06/20 04:55:30;;;;;;;3.63;3.33;;;15.60;99.90;;;;;;7379576;19;20317;-77
2022/06/20 04:57:57;;;;;;;3.58;3.28;;;15.60;99.90;;;;;;7379810;19;20313;-80
2022/06/20 05:00:34;;;;;;;5.60;3.53;;;15.60;99.90;;;;;;7386340;19;20327;-78
2022/06/20 05:03:00;;;;;;;3.85;2.97;;;15.70;99.90;;;;;;7279782;19;2019257;-78
2022/06/20 05:05:28;;;;;;;3.20;2.90;;;15.80;99.90;;;;;;7382813;19;20316;-81
2022/06/20 05:07:54;;;;;;;3.33;3.03;;;15.90;99.90;;;;;;7378066;19;20312;-76
2022/06/20 05:10:33;;;;;;;3.15;2.85;;;16.00;99.90;;;;;;7384997;19;20332;-79
2022/06/20 05:13:20;;;;;;;4.20;2.93;;;16.10;99.90;;;;;;7278269;19;2004518;-77
2022/06/20 05:15:46;;;;;;;4.45;3.10;;;16.10;99.90;;;;;;7383500;19;20713;-77
2022/06/20 05:18:42;;;;;;;4.55;3.10;;;16.10;99.90;;;;;;7384174;19;20340;-78
2022/06/20 05:21:20;;;;;;;3.37;2.90;;;16.10;99.90;;;;;;7283827;19;2004846;-83
2022/06/20 05:23:50;;;;;;;3.10;2.80;;;16.10;99.90;;;;;;7385299;19;20333;-81
2022/06/20 05:26:23;;;;;;;4.15;3.30;;;16.10;99.90;;;;;;7385746;19;20388;-75
2022/06/20 05:28:50;;;;;;;3.25;2.95;;;16.10;99.90;;;;;;7383221;19;20392;-76
2022/06/20 05:31:27;;;;;;;3.30;3.00;;;16.20;99.90;;;;;;7386162;19;20730;-76
2022/06/20 05:33:56;;;;;;;3.38;3.08;;;16.30;99.90;;;;;;7386463;19;20338;-77
2022/06/20 05:36:30;;;;;;;3.25;2.70;;;16.40;99.90;;;;;;7383990;19;20421;-77
2022/06/20 05:38:59;;;;;;;3.75;3.45;;;16.50;99.90;;;;;;7280326;19;2010436;-77
2022/06/20 05:41:25;;;;;;;2.80;2.60;;;16.30;99.90;;;;;;7387018;19;20317;-76
2022/06/20 05:43:50;;;;;;;3.93;3.57;;;16.30;99.90;;;;;;7388694;19;20328;-76
2022/06/20 05:46:38;;;;;;;6.85;3.47;;;16.40;99.90;;;;;;7388778;19;21263;-77
2022/06/20 05:49:10;;;;;;;3.60;3.30;;;16.30;99.90;;;;;;7286696;19;2019810;-78
2022/06/20 05:51:36;;;;;;;4.70;3.72;;;16.40;99.90;;;;;;7392394;19;20320;-78
2022/06/20 05:54:04;;;;;;;3.83;3.28;;;16.30;99.90;;;;;;7391361;19;20320;-76
2022/06/20 05:56:32;;;;;;;5.47;3.17;;;16.30;99.90;;;;;;7383979;19;20368;-77
2022/06/20 05:58:57;;;;;;;3.75;3.42;;;16.40;99.90;;;;;;7384866;19;21118;-77
2022/06/20 06:01:30;;;;;;;3.87;3.53;;;16.40;99.90;;;;;;7384491;19;20336;-78
2022/06/20 06:04:17;;;;;;;4.43;2.83;;;16.50;99.90;;;;;;7284628;19;2004532;-77
2022/06/20 06:06:54;;;;;;;3.90;3.50;;;16.50;99.90;;;;;;7381710;19;20359;-77
2022/06/20 06:09:44;;;;;;;3.75;3.38;;;16.60;99.90;;;;;;7386185;19;20308;-76
2022/06/20 06:12:13;;;;;;;5.25;3.25;;;16.60;99.90;;;;;;7286085;19;2013616;-77
2022/06/20 06:14:41;;;;;;;3.53;3.22;;;16.70;99.90;;;;;;7388856;19;20339;-78
2022/06/20 06:17:10;;;;;;;3.83;3.43;;;16.80;99.90;;;;;;7379824;19;20347;-76
2022/06/20 06:19:48;;;;;;;3.42;3.13;;;16.70;99.90;;;;;;7385599;19;20328;-77
2022/06/20 06:22:19;;;;;;;3.90;3.13;;;16.70;99.90;;;;;;7386299;19;20725;-77
2022/06/20 06:24:46;;;;;;;2.90;2.60;;;16.40;99.90;;;;;;7385915;19;20413;-77
2022/06/20 06:27:22;;;;;;;3.50;3.20;;;16.40;99.90;;;;;;7377943;19;20368;-77
2022/06/20 06:29:51;;;;;;;4.93;3.90;;;16.20;99.90;;;;;;7383185;19;20345;-77
2022/06/20 06:32:33;;;;;;;4.20;3.75;;;16.00;99.90;;;;;;7378986;19;20301;-75
2022/06/20 06:35:22;;;;;;;4.10;3.70;;;15.80;99.90;;;;;;7278576;19;2004584;-79
2022/06/20 06:38:04;;;;;;;4.78;4.13;;;15.50;99.90;;;;;;7374941;19;20785;-79
2022/06/20 06:40:43;;;;;;;5.50;4.60;;;15.20;99.90;;;;;;7276861;19;2004713;-78
2022/06/20 06:43:25;;;;;;;5.20;4.72;;;15.10;99.90;;;;;;7385279;19;20316;-79
2022/06/20 06:45:53;;;;;;;5.88;4.90;;;15.10;99.90;;;;;;7379896;19;20305;-75
2022/06/20 06:48:39;;;;;;;7.50;4.90;;;15.10;99.90;;;;;;7374623;19;20864;-76
2022/06/20 06:51:09;;;;;;;5.10;4.70;;;15.20;99.90;;;;;;7276569;19;2004424;-79
2022/06/20 06:53:45;;;;;;;6.95;5.38;;;15.20;99.90;;;;;;7379266;19;20325;-77
2022/06/20 06:56:15;;;;;;;6.35;4.65;;;15.10;99.90;;;;;;7375629;19;20626;-81
2022/06/20 06:58:53;;;;;;;8.63;5.30;;;15.20;99.90;;;;;;7373319;19;20349;-75
2022/06/20 07:01:21;;;;;;;5.60;3.88;;;15.20;99.90;;;;;;7374805;19;20327;-77
2022/06/20 07:03:55;;;;;;;4.60;3.67;;;15.10;99.90;;;;;;7373498;19;20346;-77
2022/06/20 07:06:23;;;;;;;4.85;4.00;;;15.20;99.90;;;;;;7374552;19;20329;-83
2022/06/20 07:09:16;;;;;;;4.32;3.60;;;15.10;99.90;;;;;;7372012;19;20309;-85
2022/06/20 07:12:03;;;;;;;4.00;3.65;;;15.00;99.90;;;;;;7273438;19;2004426;-82
2022/06/20 07:14:28;;;;;;;4.00;3.60;;;15.00;99.90;;;;;;7275145;19;2004540;-88
2022/06/20 07:17:00;;;;;;;3.73;3.43;;;15.10;99.90;;;;;;7372238;19;20835;-77
2022/06/20 07:19:25;;;;;;;3.73;3.40;;;15.20;99.90;;;;;;7278552;19;2004192;-78
2022/06/20 07:21:51;;;;;;;3.58;3.28;;;15.10;99.90;;;;;;7389635;19;20300;-79
2022/06/20 07:24:35;;;;;;;3.10;2.90;;;15.00;99.90;;;;;;7389791;19;20843;-75
2022/06/20 07:27:16;;;;;;;3.15;2.95;;;15.10;99.90;;;;;;7280918;19;2004491;-76
2022/06/20 07:30:07;;;;;;;3.07;2.83;;;15.10;99.90;;;;;;7385027;19;20372;-82
2022/06/20 07:32:48;;;;;;;3.05;2.83;;;15.10;99.90;;;;;;7283500;19;2020034;-77
2022/06/20 07:35:24;;;;;;;3.27;2.97;;;15.10;99.90;;;;;;7384941;19;20349;-85
2022/06/20 07:37:54;;;;;;;3.65;3.35;;;14.90;99.90;;;;;;7381484;19;20317;-80
2022/06/20 07:40:34;;;;;;;3.55;3.25;;;14.70;99.90;;;;;;7388655;19;20329;-79
2022/06/20 07:43:02;;;;;;;4.55;4.15;;;14.80;99.90;;;;;;7283485;19;2004905;-78
2022/06/20 07:45:32;;;;;;;4.53;3.50;;;14.80;99.90;;;;;;7382164;19;20317;-75
2022/06/20 07:47:59;;;;;;;3.70;3.35;;;14.90;99.90;;;;;;7374591;19;20343;-78
2022/06/20 07:50:33;;;;;;;2.83;2.63;;;15.00;99.90;;;;;;7384218;19;20664;-81
2022/06/20 07:53:08;;;;;;;3.00;2.67;;;15.00;99.90;;;;;;7282025;19;2020356;-77
2022/06/20 07:55:34;;;;;;;3.20;2.90;;;15.10;99.90;;;;;;7382216;19;20654;-86
2022/06/20 07:58:09;;;;;;;3.25;2.80;;;15.20;99.90;;;;;;7377552;19;20323;-78
2022/06/20 08:00:38;;;;;;;2.50;2.30;;;15.20;99.90;;;;;;7382949;19;20329;-80
2022/06/20 08:03:25;;;;;;;3.03;2.75;;;15.20;99.90;;;;;;7383341;19;20326;-79
2022/06/20 08:05:54;;;;;;;2.80;2.60;;;15.00;99.90;;;;;;7382785;19;20332;-76
2022/06/20 08:08:26;;;;;;;3.20;2.70;;;15.00;99.90;;;;;;7378225;19;20341;-84
2022/06/20 08:11:39;;;;;;;2.23;2.13;;;15.20;99.90;;;;;;7382673;19;20327;-80
2022/06/20 08:13:58;;;;;;;3.33;2.58;;;15.20;99.90;;;;;;7182465;19;2005513;-76
2022/06/20 08:16:24;;;;;;;2.70;2.40;;;15.10;99.90;;;;;;7381189;19;20357;-79
2022/06/20 08:18:51;;;;;;;2.90;2.70;;;15.10;99.90;;;;;;7379167;19;20304;-83
2022/06/20 08:21:27;;;;;;;3.03;2.83;;;15.00;99.90;;;;;;7385031;19;20348;-82
2022/06/20 08:23:55;;;;;;;3.03;2.72;;;15.00;99.90;;;;;;7388351;19;20314;-75
2022/06/20 08:27:02;;;;;;;2.75;2.55;;;15.10;99.90;;;;;;7380412;19;20335;-77
2022/06/20 08:29:40;;;;;;;2.50;2.30;;;15.30;99.90;;;;;;7176950;19;2005878;-83
2022/06/20 08:32:10;;;;;;;2.58;2.38;;;15.40;99.90;;;;;;7384435;19;20340;-78
2022/06/20 08:34:56;;;;;;;2.80;2.60;;;15.40;99.90;;;;;;7386602;19;20324;-82
2022/06/20 08:37:42;;;;;;;2.45;2.28;;;15.30;99.90;;;;;;7380058;19;20321;-77
2022/06/20 08:40:19;;;;;;;2.80;2.60;;;15.40;99.90;;;;;;7283426;19;2004934;-80
2022/06/20 08:43:27;;;;;;;2.47;2.30;;;15.30;99.90;;;;;;7386385;19;20332;-76
2022/06/20 08:46:11;;;;;;;2.90;2.70;;;15.20;99.90;;;;;;7277080;19;2004412;-76
2022/06/20 08:48:58;;;;;;;2.83;2.42;;;15.00;99.90;;;;;;7272711;19;2004713;-78
2022/06/20 08:51:40;;;;;;;2.60;2.40;;;14.90;99.90;;;;;;7384316;19;20316;-82
2022/06/20 08:54:35;;;;;;;2.42;2.20;;;15.00;99.90;;;;;;7282722;19;2004324;-78
2022/06/20 08:57:08;;;;;;;4.38;2.60;;;15.10;99.90;;;;;;7276277;19;2005879;-78
2022/06/20 08:59:48;;;;;;;2.40;2.20;;;15.10;99.90;;;;;;7383271;19;20305;-81
2022/06/20 09:02:25;;;;;;;2.63;2.42;;;15.20;99.90;;;;;;7382305;19;20368;-77
2022/06/20 09:05:29;;;;;;;2.58;2.38;;;15.10;99.90;;;;;;7391109;19;20312;-77
2022/06/20 09:08:20;;;;;;;2.13;2.00;;;15.20;99.90;;;;;;7177811;19;2004353;-78
2022/06/20 09:10:48;;;;;;;2.90;2.60;;;15.20;99.90;;;;;;7286833;19;2005912;-79
2022/06/20 09:13:14;;;;;;;2.63;2.42;;;15.20;99.90;;;;;;7388247;19;20946;-75
2022/06/20 09:15:55;;;;;;;2.90;2.70;;;15.20;99.90;;;;;;7382540;19;20371;-79
2022/06/20 09:18:28;;;;;;;3.15;2.85;;;14.90;99.90;;;;;;7377747;19;20304;-79
2022/06/20 09:21:04;;;;;;;2.80;2.60;;;15.00;99.90;;;;;;7382415;19;20306;-77
2022/06/20 09:23:39;;;;;;;2.95;2.75;;;15.10;99.90;;;;;;7282606;19;2004325;-80
2022/06/20 09:26:19;;;;;;;2.72;2.50;;;15.20;99.90;;;;;;7387196;19;20339;-77
2022/06/20 09:29:13;;;;;;;2.58;2.38;;;15.50;99.90;;;;;;7382555;19;20345;-76
2022/06/20 09:32:22;;;;;;;3.20;2.90;;;15.70;99.90;;;;;;7283717;19;2012520;-76
2022/06/20 09:35:07;;;;;;;2.80;2.60;;;15.80;99.90;;;;;;7285583;19;2004761;-78
2022/06/20 09:38:02;;;;;;;2.45;2.25;;;16.00;99.90;;;;;;7279930;19;2004345;-76
2022/06/20 09:40:39;;;;;;;2.20;2.10;;;16.10;99.90;;;;;;7285555;19;2004404;-82
2022/06/20 09:43:22;;;;;;;3.03;2.17;;;16.00;99.90;;;;;;7382083;19;20312;-76
2022/06/20 09:46:01;;;;;;;2.45;1.88;;;16.00;99.90;;;;;;7379201;19;20343;-77
2022/06/20 09:48:49;;;;;;;2.20;2.00;;;16.00;99.90;;;;;;7273832;19;2020040;-79
2022/06/20 09:51:26;;;;;;;2.40;2.20;;;15.90;99.90;;;;;;7382519;19;20947;-77
2022/06/20 09:54:28;;;;;;;1.97;1.83;;;15.80;99.90;;;;;;7379764;19;20304;-76
2022/06/20 09:57:00;;;;;;;1.70;1.60;;;15.80;99.90;;;;;;7276051;19;2017759;-79
2022/06/20 09:59:33;;;;;;;2.00;1.80;;;15.80;99.90;;;;;;7379773;19;20657;-77
2022/06/20 10:02:31;;;;;;;2.20;2.00;;;15.90;99.90;;;;;;7276479;19;2004493;-76
2022/06/20 10:05:11;;;;;;;1.80;1.70;;;15.60;99.90;;;;;;7283497;19;2005839;-78
2022/06/20 10:07:47;;;;;;;1.60;1.50;;;15.70;99.90;;;;;;7378783;19;21167;-76
2022/06/20 10:10:33;;;;;;;1.70;1.60;;;15.80;99.90;;;;;;7391705;19;20649;-77
2022/06/20 10:13:08;;;;;;;1.77;1.67;;;16.00;99.90;;;;;;7289312;19;2004433;-79
2022/06/20 10:15:47;;;;;;;1.70;1.60;;;16.00;99.90;;;;;;7390711;19;20344;-79
2022/06/20 10:18:31;;;;;;;1.85;1.75;;;16.00;99.90;;;;;;7389511;19;20501;-77
2022/06/20 10:21:29;;;;;;;1.70;1.60;;;16.10;99.90;;;;;;7289292;19;2004381;-78
2022/06/20 10:24:00;;;;;;;2.00;1.80;;;16.20;99.90;;;;;;7392274;19;20847;-78
2022/06/20 10:26:48;;;;;;;2.00;1.90;;;16.20;99.90;;;;;;7389939;19;20335;-77
2022/06/20 10:29:22;;;;;;;2.17;2.03;;;16.10;99.90;;;;;;7279341;19;2012879;-74
2022/06/20 10:32:19;;;;;;;2.40;2.20;;;15.90;99.90;;;;;;7380395;19;20297;-79
2022/06/20 10:34:55;;;;;;;1.92;1.83;;;15.80;99.90;;;;;;7281131;19;2004370;-76
2022/06/20 10:37:43;;;;;;;1.90;1.80;;;15.80;99.90;;;;;;7380079;19;20319;-79
2022/06/20 10:40:48;;;;;;;1.80;1.70;;;15.90;99.90;;;;;;7282883;19;2012346;-77
2022/06/20 10:43:43;;;;;;;2.37;2.17;;;16.00;99.90;;;;;;7284120;19;2004204;-80
2022/06/20 10:46:26;;;;;;;2.00;1.90;;;15.90;99.90;;;;;;7278900;19;2004664;-77
2022/06/20 10:49:10;;;;;;;1.90;1.80;;;15.90;99.90;;;;;;7379727;19;21091;-78
2022/06/20 10:51:54;;;;;;;2.27;2.07;;;16.00;99.90;;;;;;7283459;19;2004540;-80
2022/06/20 10:54:38;;;;;;;2.38;2.17;;;16.10;99.90;;;;;;7390430;19;20332;-78
2022/06/20 10:57:28;;;;;;;2.77;1.90;;;16.00;99.90;;;;;;7285281;19;2004445;-79
2022/06/20 11:00:07;;;;;;;2.50;2.30;;;16.10;99.90;;;;;;7392938;19;20312;-82
2022/06/20 11:02:57;;;;;;;2.20;2.10;;;16.00;99.90;;;;;;7289014;19;2004339;-78
2022/06/20 11:05:55;;;;;;;2.70;2.40;;;15.90;99.90;;;;;;7393337;19;20309;-79
2022/06/20 11:08:34;;;;;;;2.38;2.17;;;15.90;99.90;;;;;;7284621;19;2013311;-79
2022/06/20 11:11:18;;;;;;;2.80;2.20;;;15.70;99.90;;;;;;7292314;19;2004579;-83
2022/06/20 11:13:57;;;;;;;2.60;2.40;;;15.70;99.90;;;;;;7392059;19;20344;-79
2022/06/20 11:16:43;;;;;;;2.63;2.42;;;15.70;99.90;;;;;;7388236;19;20411;-79
2022/06/20 11:19:27;;;;;;;2.60;2.40;;;15.50;99.90;;;;;;7283968;19;2004552;-79
2022/06/20 11:22:46;;;;;;;2.70;2.50;;;15.40;99.90;;;;;;7387343;19;20325;-79
2022/06/20 11:25:21;;;;;;;3.03;2.17;;;15.40;99.90;;;;;;7180006;19;2006072;-83
2022/06/20 11:28:08;;;;;;;2.50;2.30;;;15.50;99.90;;;;;;7378334;19;20944;-79
2022/06/20 11:30:58;;;;;;;2.50;2.30;;;15.40;99.90;;;;;;7285241;19;2004315;-78
2022/06/20 11:36:58;;;;;;;2.88;2.67;;;15.30;99.90;;;;;;7184798;19;2004694;-81
2022/06/20 11:39:48;;;;;;;4.75;4.25;;;15.30;99.90;;;;;;7386422;19;20316;-79
2022/06/20 11:42:31;;;;;;;2.75;2.53;;;15.30;99.90;;;;;;7283789;19;2004251;-77
2022/06/20 11:45:22;;;;;;;3.00;2.70;;;15.30;99.90;;;;;;7388011;19;20420;-80
2022/06/20 11:47:50;;;;;;;3.10;2.80;;;15.30;99.90;;;;;;7289634;19;2019847;-81
2022/06/20 11:50:33;;;;;;;3.17;2.83;;;15.30;99.90;;;;;;7389640;19;20324;-79
2022/06/20 11:53:26;;;;;;;3.15;2.58;;;15.20;99.90;;;;;;7279986;19;2004265;-85
2022/06/20 11:56:01;;;;;;;3.13;2.60;;;15.10;99.90;;;;;;7387661;19;20360;-79
2022/06/20 11:59:08;;;;;;;2.90;2.70;;;15.20;99.90;;;;;;7386253;19;20336;-77
2022/06/20 12:01:46;;;;;;;2.78;2.58;;;15.10;99.90;;;;;;7173842;19;2005812;-78
2022/06/20 12:04:21;;;;;;;2.97;2.78;;;15.10;99.90;;;;;;7382467;19;20336;-79
2022/06/20 12:07:00;;;;;;;2.55;2.35;;;15.00;99.90;;;;;;7379972;19;20336;-81
2022/06/20 12:09:42;;;;;;;3.08;2.60;;;15.00;99.90;;;;;;7386379;19;20327;-78
2022/06/20 12:12:14;;;;;;;3.05;2.75;;;15.00;99.90;;;;;;7281654;19;2004388;-77
2022/06/20 12:15:14;;;;;;;2.53;2.30;;;14.90;99.90;;;;;;7380630;19;20356;-81
2022/06/20 12:18:04;;;;;;;2.92;2.67;;;15.00;99.90;;;;;;7281640;19;2004517;-80
2022/06/20 12:23:28;;;;;;;2.53;2.33;;;15.10;99.90;;;;;;7382381;19;20693;-78
2022/06/20 12:26:05;;;;;;;2.80;2.50;;;15.20;99.90;;;;;;7384800;19;20320;-81
2022/06/20 12:28:38;;;;;;;2.40;2.20;;;15.10;99.90;;;;;;7281803;19;2004163;-78
2022/06/20 12:31:15;;;;;;;2.50;2.30;;;15.20;99.90;;;;;;7382851;19;20317;-80
2022/06/20 12:33:50;;;;;;;2.30;2.10;;;15.40;99.90;;;;;;7381064;19;20336;-81
2022/06/20 12:36:34;;;;;;;3.08;2.50;;;15.30;99.90;;;;;;7385788;19;20737;-79
2022/06/20 12:39:04;;;;;;;2.40;2.20;;;15.10;99.90;;;;;;7281717;19;2004399;-80
2022/06/20 12:41:31;;;;;;;2.78;2.58;;;15.20;99.90;;;;;;7383173;19;20416;-79
2022/06/20 12:44:33;;;;;;;3.10;2.67;;;15.10;99.90;;;;;;7380742;19;20345;-82
2022/06/20 12:47:33;;;;;;;2.80;2.60;;;15.10;99.90;;;;;;7177148;19;2005823;-77
2022/06/20 12:50:18;;;;;;;2.67;2.35;;;15.00;99.90;;;;;;7283522;19;2004243;-77
2022/06/20 12:53:00;;;;;;;2.60;2.40;;;15.00;99.90;;;;;;7381055;19;20359;-79
2022/06/20 12:55:59;;;;;;;2.42;2.22;;;15.00;99.90;;;;;;7382730;19;20338;-82
2022/06/20 12:58:45;;;;;;;2.50;2.30;;;15.10;99.90;;;;;;7278836;19;2004516;-78
2022/06/20 13:01:14;;;;;;;2.83;2.60;;;15.10;99.90;;;;;;7281822;19;2004223;-83
2022/06/20 13:03:56;;;;;;;2.30;2.20;;;15.10;99.90;;;;;;7383319;19;20657;-80
2022/06/20 13:06:36;;;;;;;2.72;2.53;;;15.10;99.90;;;;;;7385453;19;20316;-83
2022/06/20 13:09:32;;;;;;;3.83;2.63;;;15.10;99.90;;;;;;7285153;19;2004510;-80
2022/06/20 13:12:21;;;;;;;2.70;2.50;;;15.10;99.90;;;;;;7383632;19;20861;-80
2022/06/20 13:15:05;;;;;;;4.43;2.67;;;15.00;99.90;;;;;;7281120;19;2004517;-78
2022/06/20 13:17:38;;;;;;;3.10;2.70;;;15.00;99.90;;;;;;7274745;19;2004335;-77
2022/06/20 13:20:06;;;;;;;3.30;2.60;;;15.00;99.90;;;;;;7380645;19;20442;-78
2022/06/20 13:22:48;;;;;;;3.08;2.78;;;15.00;99.90;;;;;;7377818;19;20360;-78
2022/06/20 13:25:31;;;;;;;4.78;2.90;;;15.00;99.90;;;;;;7382840;19;20686;-86
2022/06/20 13:28:13;;;;;;;3.92;2.55;;;15.10;99.90;;;;;;7381953;19;20297;-79
2022/06/20 13:30:46;;;;;;;3.47;3.00;;;15.10;99.90;;;;;;7281904;19;2004367;-80
2022/06/20 13:33:23;;;;;;;4.00;3.10;;;15.10;99.90;;;;;;7381006;19;20361;-80
2022/06/20 13:35:53;;;;;;;2.97;2.73;;;15.00;99.90;;;;;;7383312;19;23502;-81
2022/06/20 13:38:25;;;;;;;3.58;2.63;;;14.90;99.90;;;;;;7383077;19;20321;-80
2022/06/20 13:41:01;;;;;;;3.78;2.97;;;15.00;99.90;;;;;;7386640;19;20321;-81